sensor_id;sensor_type;location;lat;lon;timestamp;pressure;altitude;pressure_sealevel;temperature;humidity
12471;BME280;36499;46.484;13.832;2023-06-10T00:02:21;92869.69;;;15.30;93.50
12471;BME280;36499;46.484;13.832;2023-06-10T00:04:48;92871.50;;;15.24;93.77
12471;BME280;36499;46.484;13.832;2023-06-10T00:07:15;92876.59;;;15.14;94.67
12471;BME280;36499;46.484;13.832;2023-06-10T00:09:42;92869.28;;;15.16;94.75
12471;BME280;36499;46.484;13.832;2023-06-10T00:12:11;92869.38;;;15.21;94.77
12471;BME280;36499;46.484;13.832;2023-06-10T00:14:41;92862.31;;;15.27;94.47
12471;BME280;36499;46.484;13.832;2023-06-10T00:17:08;92863.34;;;15.26;94.28
12471;BME280;36499;46.484;13.832;2023-06-10T00:19:35;92860.19;;;15.24;94.17
12471;BME280;36499;46.484;13.832;2023-06-10T00:22:03;92853.94;;;15.30;93.59
12471;BME280;36499;46.484;13.832;2023-06-10T00:24:30;92860.06;;;15.35;93.45
12471;BME280;36499;46.484;13.832;2023-06-10T00:26:57;92857.56;;;15.24;93.43
12471;BME280;36499;46.484;13.832;2023-06-10T00:29:26;92866.59;;;15.11;93.88
12471;BME280;36499;46.484;13.832;2023-06-10T00:31:53;92877.09;;;15.11;94.31
12471;BME280;36499;46.484;13.832;2023-06-10T00:34:23;92872.91;;;15.10;94.54
12471;BME280;36499;46.484;13.832;2023-06-10T00:36:50;92869.91;;;15.02;94.61
12471;BME280;36499;46.484;13.832;2023-06-10T00:39:17;92871.25;;;15.04;94.15
12471;BME280;36499;46.484;13.832;2023-06-10T00:41:44;92872.03;;;15.05;93.79
12471;BME280;36499;46.484;13.832;2023-06-10T00:44:11;92874.19;;;15.08;93.90
12471;BME280;36499;46.484;13.832;2023-06-10T00:46:40;92868.09;;;15.02;93.98
12471;BME280;36499;46.484;13.832;2023-06-10T00:49:08;92864.28;;;14.93;95.02
12471;BME280;36499;46.484;13.832;2023-06-10T00:51:35;92866.72;;;15.00;94.57
12471;BME280;36499;46.484;13.832;2023-06-10T00:54:03;92856.59;;;15.08;94.52
12471;BME280;36499;46.484;13.832;2023-06-10T00:56:31;92868.44;;;15.11;93.12
12471;BME280;36499;46.484;13.832;2023-06-10T00:59:00;92859.53;;;15.12;92.80
12471;BME280;36499;46.484;13.832;2023-06-10T01:01:28;92863.19;;;15.11;92.61
12471;BME280;36499;46.484;13.832;2023-06-10T01:03:56;92856.53;;;15.03;93.00
12471;BME280;36499;46.484;13.832;2023-06-10T01:06:37;92857.22;;;14.94;94.05
12471;BME280;36499;46.484;13.832;2023-06-10T01:09:23;92860.34;;;14.91;94.36
12471;BME280;36499;46.484;13.832;2023-06-10T01:12:05;92861.34;;;14.89;94.62
12471;BME280;36499;46.484;13.832;2023-06-10T01:14:36;92858.44;;;14.86;94.99
12471;BME280;36499;46.484;13.832;2023-06-10T01:17:06;92857.88;;;14.84;95.17
12471;BME280;36499;46.484;13.832;2023-06-10T01:19:35;92850.31;;;14.87;95.05
12471;BME280;36499;46.484;13.832;2023-06-10T01:22:04;92854.50;;;14.88;94.74
12471;BME280;36499;46.484;13.832;2023-06-10T01:24:31;92849.84;;;14.91;94.38
12471;BME280;36499;46.484;13.832;2023-06-10T01:27:04;92851.09;;;14.88;94.03
12471;BME280;36499;46.484;13.832;2023-06-10T01:29:41;92854.47;;;14.83;93.83
12471;BME280;36499;46.484;13.832;2023-06-10T01:32:17;92848.88;;;14.80;93.59
12471;BME280;36499;46.484;13.832;2023-06-10T01:34:47;92841.94;;;14.69;93.79
12471;BME280;36499;46.484;13.832;2023-06-10T01:37:20;92843.59;;;14.53;95.18
12471;BME280;36499;46.484;13.832;2023-06-10T01:39:50;92843.94;;;14.62;95.07
12471;BME280;36499;46.484;13.832;2023-06-10T01:42:18;92845.31;;;14.64;94.57
12471;BME280;36499;46.484;13.832;2023-06-10T01:44:45;92848.19;;;14.46;95.89
12471;BME280;36499;46.484;13.832;2023-06-10T01:47:12;92846.66;;;14.50;95.92
12471;BME280;36499;46.484;13.832;2023-06-10T01:49:39;92844.84;;;14.51;94.98
12471;BME280;36499;46.484;13.832;2023-06-10T01:52:07;92850.66;;;14.53;94.53
12471;BME280;36499;46.484;13.832;2023-06-10T01:54:35;92852.47;;;14.52;93.56
12471;BME280;36499;46.484;13.832;2023-06-10T01:57:03;92850.09;;;14.51;93.27
12471;BME280;36499;46.484;13.832;2023-06-10T01:59:31;92852.47;;;14.52;93.71
12471;BME280;36499;46.484;13.832;2023-06-10T02:01:59;92853.81;;;14.55;93.61
12471;BME280;36499;46.484;13.832;2023-06-10T02:04:26;92853.59;;;14.56;93.71
12471;BME280;36499;46.484;13.832;2023-06-10T02:06:53;92850.41;;;14.54;94.27
12471;BME280;36499;46.484;13.832;2023-06-10T02:09:21;92843.59;;;14.53;93.90
12471;BME280;36499;46.484;13.832;2023-06-10T02:11:49;92847.47;;;14.51;92.41
12471;BME280;36499;46.484;13.832;2023-06-10T02:14:16;92845.09;;;14.49;92.27
12471;BME280;36499;46.484;13.832;2023-06-10T02:16:44;92840.75;;;14.38;93.38
12471;BME280;36499;46.484;13.832;2023-06-10T02:19:12;92847.72;;;14.32;94.64
12471;BME280;36499;46.484;13.832;2023-06-10T02:21:39;92847.41;;;14.29;96.51
12471;BME280;36499;46.484;13.832;2023-06-10T02:24:07;92839.38;;;14.35;96.36
12471;BME280;36499;46.484;13.832;2023-06-10T02:26:34;92843.59;;;14.36;96.23
12471;BME280;36499;46.484;13.832;2023-06-10T02:29:02;92836.75;;;14.35;96.09
12471;BME280;36499;46.484;13.832;2023-06-10T02:31:30;92837.78;;;14.34;94.98
12471;BME280;36499;46.484;13.832;2023-06-10T02:33:57;92838.81;;;14.33;94.82
12471;BME280;36499;46.484;13.832;2023-06-10T02:36:24;92834.06;;;14.30;94.01
12471;BME280;36499;46.484;13.832;2023-06-10T02:38:53;92834.16;;;14.02;95.40
12471;BME280;36499;46.484;13.832;2023-06-10T02:41:20;92833.44;;;13.90;97.15
12471;BME280;36499;46.484;13.832;2023-06-10T02:43:47;92829.88;;;13.96;97.45
12471;BME280;36499;46.484;13.832;2023-06-10T02:46:16;92833.94;;;14.04;97.22
12471;BME280;36499;46.484;13.832;2023-06-10T02:48:43;92827.41;;;14.06;96.97
12471;BME280;36499;46.484;13.832;2023-06-10T02:51:10;92824.78;;;14.06;97.02
12471;BME280;36499;46.484;13.832;2023-06-10T02:53:38;92822.03;;;13.96;97.46
12471;BME280;36499;46.484;13.832;2023-06-10T02:56:05;92816.88;;;13.84;98.90
12471;BME280;36499;46.484;13.832;2023-06-10T02:58:32;92826.88;;;13.87;98.91
12471;BME280;36499;46.484;13.832;2023-06-10T03:00:59;92823.06;;;13.95;98.79
12471;BME280;36499;46.484;13.832;2023-06-10T03:03:27;92821.53;;;13.99;97.30
12471;BME280;36499;46.484;13.832;2023-06-10T03:05:56;92818.34;;;13.97;96.17
12471;BME280;36499;46.484;13.832;2023-06-10T03:08:24;92828.50;;;13.93;96.32
12471;BME280;36499;46.484;13.832;2023-06-10T03:10:52;92821.78;;;13.98;97.02
12471;BME280;36499;46.484;13.832;2023-06-10T03:13:19;92817.00;;;13.94;97.05
12471;BME280;36499;46.484;13.832;2023-06-10T03:15:46;92808.34;;;13.94;96.89
12471;BME280;36499;46.484;13.832;2023-06-10T03:18:13;92811.44;;;13.91;96.67
12471;BME280;36499;46.484;13.832;2023-06-10T03:20:42;92815.19;;;13.95;96.38
12471;BME280;36499;46.484;13.832;2023-06-10T03:23:10;92812.25;;;13.91;96.98
12471;BME280;36499;46.484;13.832;2023-06-10T03:25:37;92811.44;;;13.91;97.60
12471;BME280;36499;46.484;13.832;2023-06-10T03:28:04;92805.63;;;13.89;97.58
12471;BME280;36499;46.484;13.832;2023-06-10T03:30:31;92818.44;;;13.85;97.67
12471;BME280;36499;46.484;13.832;2023-06-10T03:32:58;92812.81;;;13.77;98.04
12471;BME280;36499;46.484;13.832;2023-06-10T03:35:26;92815.19;;;13.62;99.91
12471;BME280;36499;46.484;13.832;2023-06-10T03:37:55;92817.81;;;13.78;98.14
12471;BME280;36499;46.484;13.832;2023-06-10T03:40:22;92823.34;;;13.82;97.26
12471;BME280;36499;46.484;13.832;2023-06-10T03:42:49;92818.91;;;13.82;97.52
12471;BME280;36499;46.484;13.832;2023-06-10T03:45:16;92818.59;;;13.79;98.05
12471;BME280;36499;46.484;13.832;2023-06-10T03:47:43;92817.81;;;13.78;98.09
12471;BME280;36499;46.484;13.832;2023-06-10T03:50:10;92818.34;;;13.64;99.12
12471;BME280;36499;46.484;13.832;2023-06-10T03:52:38;92828.34;;;13.67;98.89
12471;BME280;36499;46.484;13.832;2023-06-10T03:55:09;92824.63;;;13.63;99.29
12471;BME280;36499;46.484;13.832;2023-06-10T03:57:37;92826.13;;;13.59;99.87
12471;BME280;36499;46.484;13.832;2023-06-10T04:00:05;92821.84;;;13.53;100.00
12471;BME280;36499;46.484;13.832;2023-06-10T04:02:37;92831.69;;;13.45;100.00
12471;BME280;36499;46.484;13.832;2023-06-10T04:05:07;92824.63;;;13.46;100.00
12471;BME280;36499;46.484;13.832;2023-06-10T04:07:35;92827.56;;;13.50;100.00
12471;BME280;36499;46.484;13.832;2023-06-10T04:10:02;92831.44;;;13.47;100.00
12471;BME280;36499;46.484;13.832;2023-06-10T04:12:30;92830.22;;;13.38;100.00
12471;BME280;36499;46.484;13.832;2023-06-10T04:14:57;92827.38;;;13.39;100.00
12471;BME280;36499;46.484;13.832;2023-06-10T04:17:25;92823.72;;;13.40;100.00
12471;BME280;36499;46.484;13.832;2023-06-10T04:19:52;92832.75;;;13.33;100.00
12471;BME280;36499;46.484;13.832;2023-06-10T04:22:20;92824.84;;;13.44;100.00
12471;BME280;36499;46.484;13.832;2023-06-10T04:24:48;92828.59;;;13.49;100.00
12471;BME280;36499;46.484;13.832;2023-06-10T04:27:15;92823.19;;;13.55;100.00
12471;BME280;36499;46.484;13.832;2023-06-10T04:29:44;92827.41;;;13.56;100.00
12471;BME280;36499;46.484;13.832;2023-06-10T04:32:11;92830.34;;;13.60;100.00
12471;BME280;36499;46.484;13.832;2023-06-10T04:34:38;92827.09;;;13.69;100.00
12471;BME280;36499;46.484;13.832;2023-06-10T04:37:06;92830.09;;;13.78;100.00
12471;BME280;36499;46.484;13.832;2023-06-10T04:39:33;92832.00;;;13.82;100.00
12471;BME280;36499;46.484;13.832;2023-06-10T04:42:00;92829.41;;;13.99;100.00
12471;BME280;36499;46.484;13.832;2023-06-10T04:44:27;92827.72;;;14.10;100.00
12471;BME280;36499;46.484;13.832;2023-06-10T04:46:56;92827.41;;;14.23;100.00
12471;BME280;36499;46.484;13.832;2023-06-10T04:49:23;92817.03;;;14.33;100.00
12471;BME280;36499;46.484;13.832;2023-06-10T04:51:50;92817.81;;;14.50;100.00
12471;BME280;36499;46.484;13.832;2023-06-10T04:54:17;92819.06;;;14.64;100.00
12471;BME280;36499;46.484;13.832;2023-06-10T04:56:44;92822.84;;;14.73;100.00
12471;BME280;36499;46.484;13.832;2023-06-10T04:59:12;92819.00;;;14.81;99.34
12471;BME280;36499;46.484;13.832;2023-06-10T05:01:40;92813.81;;;14.86;98.97
12471;BME280;36499;46.484;13.832;2023-06-10T05:04:08;92816.25;;;14.93;98.85
12471;BME280;36499;46.484;13.832;2023-06-10T05:06:35;92810.56;;;15.01;98.61
12471;BME280;36499;46.484;13.832;2023-06-10T05:09:03;92813.78;;;15.08;98.91
12471;BME280;36499;46.484;13.832;2023-06-10T05:11:30;92819.91;;;15.13;99.03
12471;BME280;36499;46.484;13.832;2023-06-10T05:13:57;92806.94;;;15.28;98.85
12471;BME280;36499;46.484;13.832;2023-06-10T05:16:24;92809.59;;;15.33;98.17
12471;BME280;36499;46.484;13.832;2023-06-10T05:18:51;92809.53;;;15.50;98.22
12471;BME280;36499;46.484;13.832;2023-06-10T05:21:19;92804.41;;;15.65;97.59
12471;BME280;36499;46.484;13.832;2023-06-10T05:23:47;92802.63;;;15.76;97.13
12471;BME280;36499;46.484;13.832;2023-06-10T05:26:14;92803.78;;;15.85;96.61
12471;BME280;36499;46.484;13.832;2023-06-10T05:28:41;92804.88;;;15.94;95.49
12471;BME280;36499;46.484;13.832;2023-06-10T05:31:08;92795.56;;;16.13;95.22
12471;BME280;36499;46.484;13.832;2023-06-10T05:33:35;92809.31;;;16.25;94.84
12471;BME280;36499;46.484;13.832;2023-06-10T05:36:02;92810.25;;;16.46;93.07
12471;BME280;36499;46.484;13.832;2023-06-10T05:38:31;92801.66;;;16.61;92.58
12471;BME280;36499;46.484;13.832;2023-06-10T05:40:58;92798.03;;;16.72;90.75
12471;BME280;36499;46.484;13.832;2023-06-10T05:43:25;92801.22;;;16.79;89.94
12471;BME280;36499;46.484;13.832;2023-06-10T05:45:55;92800.75;;;16.92;90.54
12471;BME280;36499;46.484;13.832;2023-06-10T05:48:22;92797.09;;;17.08;90.66
12471;BME280;36499;46.484;13.832;2023-06-10T05:50:49;92791.88;;;17.28;90.56
12471;BME280;36499;46.484;13.832;2023-06-10T05:53:16;92788.22;;;17.45;89.60
12471;BME280;36499;46.484;13.832;2023-06-10T05:55:45;92791.44;;;17.62;88.62
12471;BME280;36499;46.484;13.832;2023-06-10T05:58:13;92787.78;;;17.83;88.44
12471;BME280;36499;46.484;13.832;2023-06-10T06:00:41;92784.59;;;18.01;86.39
12471;BME280;36499;46.484;13.832;2023-06-10T06:03:09;92778.25;;;18.12;85.77
12471;BME280;36499;46.484;13.832;2023-06-10T06:05:37;92783.25;;;18.19;84.36
12471;BME280;36499;46.484;13.832;2023-06-10T06:08:04;92780.88;;;18.28;85.05
12471;BME280;36499;46.484;13.832;2023-06-10T06:10:32;92774.00;;;18.32;84.50
12471;BME280;36499;46.484;13.832;2023-06-10T06:13:01;92776.91;;;18.40;84.53
12471;BME280;36499;46.484;13.832;2023-06-10T06:15:29;92771.34;;;18.47;84.27
12471;BME280;36499;46.484;13.832;2023-06-10T06:17:56;92777.94;;;18.54;81.75
12471;BME280;36499;46.484;13.832;2023-06-10T06:20:23;92783.19;;;18.69;82.83
12471;BME280;36499;46.484;13.832;2023-06-10T06:22:50;92779.97;;;18.83;83.59
12471;BME280;36499;46.484;13.832;2023-06-10T06:25:17;92764.31;;;18.96;83.83
12471;BME280;36499;46.484;13.832;2023-06-10T06:27:44;92767.44;;;19.08;80.53
12471;BME280;36499;46.484;13.832;2023-06-10T06:30:13;92756.31;;;19.16;77.78
12471;BME280;36499;46.484;13.832;2023-06-10T06:32:40;92756.75;;;19.29;78.23
12471;BME280;36499;46.484;13.832;2023-06-10T06:35:08;92755.91;;;19.43;79.32
12471;BME280;36499;46.484;13.832;2023-06-10T06:37:36;92754.81;;;19.44;75.58
12471;BME280;36499;46.484;13.832;2023-06-10T06:40:04;92754.31;;;19.37;73.62
12471;BME280;36499;46.484;13.832;2023-06-10T06:42:31;92754.00;;;19.49;74.70
12471;BME280;36499;46.484;13.832;2023-06-10T06:44:58;92755.81;;;19.53;74.00
12471;BME280;36499;46.484;13.832;2023-06-10T06:47:27;92757.00;;;19.71;72.81
12471;BME280;36499;46.484;13.832;2023-06-10T06:49:54;92755.88;;;19.82;74.75
12471;BME280;36499;46.484;13.832;2023-06-10T06:52:21;92752.88;;;19.94;71.86
12471;BME280;36499;46.484;13.832;2023-06-10T06:54:48;92755.16;;;20.05;71.60
12471;BME280;36499;46.484;13.832;2023-06-10T06:57:15;92757.66;;;20.21;70.23
12471;BME280;36499;46.484;13.832;2023-06-10T06:59:42;92750.38;;;20.36;68.81
12471;BME280;36499;46.484;13.832;2023-06-10T07:02:10;92750.06;;;20.43;68.52
12471;BME280;36499;46.484;13.832;2023-06-10T07:04:38;92763.84;;;20.40;66.87
12471;BME280;36499;46.484;13.832;2023-06-10T07:07:07;92752.56;;;20.58;66.44
12471;BME280;36499;46.484;13.832;2023-06-10T07:09:35;92756.06;;;20.77;66.30
12471;BME280;36499;46.484;13.832;2023-06-10T07:12:03;92757.00;;;20.86;64.24
12471;BME280;36499;46.484;13.832;2023-06-10T07:14:31;92749.88;;;21.05;65.27
12471;BME280;36499;46.484;13.832;2023-06-10T07:16:58;92753.78;;;21.32;68.24
12471;BME280;36499;46.484;13.832;2023-06-10T07:19:25;92746.78;;;21.60;68.07
12471;BME280;36499;46.484;13.832;2023-06-10T07:21:53;92748.47;;;21.69;61.68
12471;BME280;36499;46.484;13.832;2023-06-10T07:24:20;92745.50;;;21.89;63.56
12471;BME280;36499;46.484;13.832;2023-06-10T07:26:47;92750.13;;;22.03;61.04
12471;BME280;36499;46.484;13.832;2023-06-10T07:29:14;92743.50;;;22.00;59.64
12471;BME280;36499;46.484;13.832;2023-06-10T07:31:42;92748.94;;;22.09;60.61
12471;BME280;36499;46.484;13.832;2023-06-10T07:34:09;92741.72;;;22.28;61.39
12471;BME280;36499;46.484;13.832;2023-06-10T07:36:36;92746.75;;;22.43;61.92
12471;BME280;36499;46.484;13.832;2023-06-10T07:39:04;92739.47;;;22.48;60.08
12471;BME280;36499;46.484;13.832;2023-06-10T07:41:32;92743.31;;;22.56;59.87
12471;BME280;36499;46.484;13.832;2023-06-10T07:43:59;92736.25;;;22.65;59.93
12471;BME280;36499;46.484;13.832;2023-06-10T07:46:26;92738.84;;;22.84;59.63
12471;BME280;36499;46.484;13.832;2023-06-10T07:48:54;92727.19;;;23.07;60.36
12471;BME280;36499;46.484;13.832;2023-06-10T07:51:22;92731.03;;;23.28;59.97
12471;BME280;36499;46.484;13.832;2023-06-10T07:53:49;92734.94;;;23.45;58.84
12471;BME280;36499;46.484;13.832;2023-06-10T07:56:17;92735.47;;;23.69;58.44
12471;BME280;36499;46.484;13.832;2023-06-10T07:58:46;92736.25;;;23.92;60.07
12471;BME280;36499;46.484;13.832;2023-06-10T08:01:13;92734.66;;;24.13;60.44
12471;BME280;36499;46.484;13.832;2023-06-10T08:03:40;92740.16;;;24.30;58.71
12471;BME280;36499;46.484;13.832;2023-06-10T08:06:07;92730.47;;;24.43;58.36
12471;BME280;36499;46.484;13.832;2023-06-10T08:08:36;92739.00;;;24.53;57.96
12471;BME280;36499;46.484;13.832;2023-06-10T08:11:07;92743.28;;;24.63;59.57
12471;BME280;36499;46.484;13.832;2023-06-10T08:13:36;92740.66;;;24.71;57.21
12471;BME280;36499;46.484;13.832;2023-06-10T08:16:03;92743.53;;;24.83;58.37
12471;BME280;36499;46.484;13.832;2023-06-10T08:18:30;92744.91;;;24.81;58.65
12471;BME280;36499;46.484;13.832;2023-06-10T08:20:58;92745.94;;;24.94;56.81
12471;BME280;36499;46.484;13.832;2023-06-10T08:23:25;92745.16;;;24.93;55.97
12471;BME280;36499;46.484;13.832;2023-06-10T08:25:52;92747.84;;;25.02;55.07
12471;BME280;36499;46.484;13.832;2023-06-10T08:28:19;92749.59;;;25.15;54.15
12471;BME280;36499;46.484;13.832;2023-06-10T08:30:47;92746.81;;;25.20;54.46
12471;BME280;36499;46.484;13.832;2023-06-10T08:33:14;92751.69;;;25.35;54.08
12471;BME280;36499;46.484;13.832;2023-06-10T08:35:41;92746.53;;;25.30;54.09
12471;BME280;36499;46.484;13.832;2023-06-10T08:38:08;92753.59;;;25.26;53.99
12471;BME280;36499;46.484;13.832;2023-06-10T08:40:36;92745.09;;;25.24;52.78
12471;BME280;36499;46.484;13.832;2023-06-10T08:43:06;92748.53;;;25.24;52.19
12471;BME280;36499;46.484;13.832;2023-06-10T08:45:36;92744.63;;;25.22;52.44
12471;BME280;36499;46.484;13.832;2023-06-10T08:48:06;92748.53;;;25.16;52.47
12471;BME280;36499;46.484;13.832;2023-06-10T08:50:35;92741.03;;;25.35;53.55
12471;BME280;36499;46.484;13.832;2023-06-10T08:53:05;92742.94;;;25.43;53.28
12471;BME280;36499;46.484;13.832;2023-06-10T08:55:36;92736.53;;;25.53;52.87
12471;BME280;36499;46.484;13.832;2023-06-10T08:58:04;92739.97;;;25.53;53.69
12471;BME280;36499;46.484;13.832;2023-06-10T09:00:32;92737.47;;;25.65;51.51
12471;BME280;36499;46.484;13.832;2023-06-10T09:03:01;92735.63;;;25.83;53.77
12471;BME280;36499;46.484;13.832;2023-06-10T09:05:36;92739.84;;;25.93;52.84
12471;BME280;36499;46.484;13.832;2023-06-10T09:08:06;92741.72;;;25.84;52.74
12471;BME280;36499;46.484;13.832;2023-06-10T09:10:34;92739.69;;;25.98;52.26
12471;BME280;36499;46.484;13.832;2023-06-10T09:13:02;92729.44;;;25.91;52.51
12471;BME280;36499;46.484;13.832;2023-06-10T09:15:29;92736.88;;;25.94;51.26
12471;BME280;36499;46.484;13.832;2023-06-10T09:17:56;92738.75;;;26.02;51.50
12471;BME280;36499;46.484;13.832;2023-06-10T09:20:23;92739.38;;;26.25;54.70
12471;BME280;36499;46.484;13.832;2023-06-10T09:22:52;92738.69;;;26.45;50.37
12471;BME280;36499;46.484;13.832;2023-06-10T09:25:34;92725.09;;;26.67;50.19
12471;BME280;36499;46.484;13.832;2023-06-10T09:28:01;92729.63;;;26.76;50.90
12471;BME280;36499;46.484;13.832;2023-06-10T09:30:30;92732.06;;;26.98;50.67
12471;BME280;36499;46.484;13.832;2023-06-10T09:32:59;92731.69;;;27.16;50.68
12471;BME280;36499;46.484;13.832;2023-06-10T09:35:29;92739.47;;;27.30;50.65
12471;BME280;36499;46.484;13.832;2023-06-10T09:37:59;92733.97;;;27.27;50.30
12471;BME280;36499;46.484;13.832;2023-06-10T09:40:28;92733.94;;;27.35;48.63
12471;BME280;36499;46.484;13.832;2023-06-10T09:42:58;92721.97;;;27.33;49.97
12471;BME280;36499;46.484;13.832;2023-06-10T09:45:30;92726.16;;;27.42;50.06
12471;BME280;36499;46.484;13.832;2023-06-10T09:47:58;92720.59;;;27.56;48.45
12471;BME280;36499;46.484;13.832;2023-06-10T09:50:26;92720.72;;;27.80;47.96
12471;BME280;36499;46.484;13.832;2023-06-10T09:52:53;92714.38;;;27.64;48.30
12471;BME280;36499;46.484;13.832;2023-06-10T09:55:23;92724.38;;;27.76;50.45
12471;BME280;36499;46.484;13.832;2023-06-10T09:57:54;92714.97;;;27.49;48.11
12471;BME280;36499;46.484;13.832;2023-06-10T10:00:22;92714.91;;;27.28;47.06
12471;BME280;36499;46.484;13.832;2023-06-10T10:02:53;92719.38;;;26.86;47.83
12471;BME280;36499;46.484;13.832;2023-06-10T10:05:22;92722.50;;;26.42;48.71
12471;BME280;36499;46.484;13.832;2023-06-10T10:07:50;92717.53;;;26.06;51.09
12471;BME280;36499;46.484;13.832;2023-06-10T10:10:20;92723.81;;;26.10;52.00
12471;BME280;36499;46.484;13.832;2023-06-10T10:12:51;92722.84;;;26.23;50.03
12471;BME280;36499;46.484;13.832;2023-06-10T10:15:23;92725.78;;;26.47;50.79
12471;BME280;36499;46.484;13.832;2023-06-10T10:17:58;92717.69;;;26.64;49.97
12471;BME280;36499;46.484;13.832;2023-06-10T10:20:31;92716.84;;;26.81;50.14
12471;BME280;36499;46.484;13.832;2023-06-10T10:23:03;92716.94;;;27.02;49.56
12471;BME280;36499;46.484;13.832;2023-06-10T10:25:37;92714.41;;;27.05;49.28
12471;BME280;36499;46.484;13.832;2023-06-10T10:28:09;92719.19;;;26.91;48.80
12471;BME280;36499;46.484;13.832;2023-06-10T10:30:40;92714.59;;;27.00;49.31
12471;BME280;36499;46.484;13.832;2023-06-10T10:33:16;92710.22;;;26.96;48.60
12471;BME280;36499;46.484;13.832;2023-06-10T10:35:46;92716.69;;;26.86;47.58
12471;BME280;36499;46.484;13.832;2023-06-10T10:38:14;92713.13;;;26.73;47.86
12471;BME280;36499;46.484;13.832;2023-06-10T10:40:44;92717.78;;;26.47;48.13
12471;BME280;36499;46.484;13.832;2023-06-10T10:43:13;92717.13;;;26.50;48.92
12471;BME280;36499;46.484;13.832;2023-06-10T10:45:41;92724.09;;;26.34;48.74
12471;BME280;36499;46.484;13.832;2023-06-10T10:48:09;92725.34;;;26.11;49.11
12471;BME280;36499;46.484;13.832;2023-06-10T10:50:38;92718.00;;;25.91;50.34
12471;BME280;36499;46.484;13.832;2023-06-10T10:53:06;92725.22;;;25.73;50.78
12471;BME280;36499;46.484;13.832;2023-06-10T10:55:33;92729.00;;;25.55;50.82
12471;BME280;36499;46.484;13.832;2023-06-10T10:58:05;92733.50;;;25.37;52.34
12471;BME280;36499;46.484;13.832;2023-06-10T11:00:34;92729.06;;;25.24;51.53
12471;BME280;36499;46.484;13.832;2023-06-10T11:03:07;92724.81;;;25.06;51.34
12471;BME280;36499;46.484;13.832;2023-06-10T11:05:40;92728.97;;;24.90;52.07
12471;BME280;36499;46.484;13.832;2023-06-10T11:08:11;92722.19;;;24.83;53.12
12471;BME280;36499;46.484;13.832;2023-06-10T11:10:40;92719.97;;;24.77;53.47
12471;BME280;36499;46.484;13.832;2023-06-10T11:13:14;92727.91;;;24.60;53.63
12471;BME280;36499;46.484;13.832;2023-06-10T11:15:44;92726.03;;;24.60;54.41
12471;BME280;36499;46.484;13.832;2023-06-10T11:18:20;92724.97;;;24.70;54.17
12471;BME280;36499;46.484;13.832;2023-06-10T11:21:00;92721.03;;;24.67;54.05
12471;BME280;36499;46.484;13.832;2023-06-10T11:23:43;92722.28;;;24.70;54.29
12471;BME280;36499;46.484;13.832;2023-06-10T11:26:29;92721.06;;;24.76;52.72
12471;BME280;36499;46.484;13.832;2023-06-10T11:29:10;92712.81;;;24.86;53.24
12471;BME280;36499;46.484;13.832;2023-06-10T11:31:48;92715.19;;;24.96;53.19
12471;BME280;36499;46.484;13.832;2023-06-10T11:34:22;92711.47;;;25.06;53.59
12471;BME280;36499;46.484;13.832;2023-06-10T11:36:51;92713.88;;;25.42;53.33
12471;BME280;36499;46.484;13.832;2023-06-10T11:39:20;92717.34;;;25.51;52.02
12471;BME280;36499;46.484;13.832;2023-06-10T11:41:50;92713.59;;;25.52;50.93
12471;BME280;36499;46.484;13.832;2023-06-10T11:44:19;92716.09;;;25.48;51.09
12471;BME280;36499;46.484;13.832;2023-06-10T11:46:48;92708.75;;;25.71;51.31
12471;BME280;36499;46.484;13.832;2023-06-10T11:49:16;92719.41;;;25.97;50.31
12471;BME280;36499;46.484;13.832;2023-06-10T11:51:43;92722.50;;;26.33;50.58
12471;BME280;36499;46.484;13.832;2023-06-10T11:54:15;92719.50;;;26.43;49.56
12471;BME280;36499;46.484;13.832;2023-06-10T11:56:43;92713.16;;;26.56;49.99
12471;BME280;36499;46.484;13.832;2023-06-10T11:59:10;92710.50;;;26.56;50.53
12471;BME280;36499;46.484;13.832;2023-06-10T12:01:44;92716.88;;;26.72;51.20
12471;BME280;36499;46.484;13.832;2023-06-10T12:04:13;92703.66;;;27.14;48.84
12471;BME280;36499;46.484;13.832;2023-06-10T12:06:42;92700.19;;;27.43;48.13
12471;BME280;36499;46.484;13.832;2023-06-10T12:09:18;92705.44;;;27.31;42.62
12471;BME280;36499;46.484;13.832;2023-06-10T12:11:50;92710.22;;;26.96;43.42
12471;BME280;36499;46.484;13.832;2023-06-10T12:14:52;92705.91;;;26.65;43.39
12471;BME280;36499;46.484;13.832;2023-06-10T12:17:36;92705.78;;;26.53;44.43
12471;BME280;36499;46.484;13.832;2023-06-10T12:20:06;92701.69;;;26.94;47.89
12471;BME280;36499;46.484;13.832;2023-06-10T12:22:38;92693.22;;;27.21;45.71
12471;BME280;36499;46.484;13.832;2023-06-10T12:25:07;92695.44;;;27.48;45.27
12471;BME280;36499;46.484;13.832;2023-06-10T12:27:35;92689.34;;;27.81;45.04
12471;BME280;36499;46.484;13.832;2023-06-10T12:30:05;92695.53;;;27.93;44.29
12471;BME280;36499;46.484;13.832;2023-06-10T12:32:42;92686.59;;;27.89;43.57
12471;BME280;36499;46.484;13.832;2023-06-10T12:35:11;92687.47;;;27.60;43.05
12471;BME280;36499;46.484;13.832;2023-06-10T12:37:39;92682.41;;;27.38;45.02
12471;BME280;36499;46.484;13.832;2023-06-10T12:40:07;92687.78;;;27.09;46.68
12471;BME280;36499;46.484;13.832;2023-06-10T12:42:36;92688.53;;;26.89;46.00
12471;BME280;36499;46.484;13.832;2023-06-10T12:45:05;92691.59;;;26.61;44.89
12471;BME280;36499;46.484;13.832;2023-06-10T12:47:37;92698.25;;;26.55;46.65
12471;BME280;36499;46.484;13.832;2023-06-10T12:50:06;92682.19;;;26.55;47.83
12471;BME280;36499;46.484;13.832;2023-06-10T12:52:34;92676.34;;;27.00;51.39
12471;BME280;36499;46.484;13.832;2023-06-10T12:55:01;92663.97;;;27.16;48.59
12471;BME280;36499;46.484;13.832;2023-06-10T12:57:29;92664.03;;;27.28;47.67
12471;BME280;36499;46.484;13.832;2023-06-10T12:59:57;92662.06;;;27.46;48.78